Time;durP1;ratioP1;P1;durP2;ratioP2;P2;SDS_P1;SDS_P2;PMS_P1;PMS_P2;Temp;Humidity;BMP_temperature;BMP_pressure;BME280_temperature;BME280_humidity;BME280_pressure;Samples;Min_cycle;Max_cycle;Signal;HPM_P1;HPM_P2
2022/10/17 03:54:16;;;;;;;;;;;21.70;99.90;;;;;;5289605;22;19926;-80
2022/10/17 03:56:43;;;;;;;;;;;21.80;99.90;;;;;;5017389;28;20004;-80
2022/10/17 03:59:12;;;;;;;;;;;21.70;99.90;;;;;;5017722;28;19933;-80
2022/10/17 04:01:39;;;;;;;;;;;21.70;99.90;;;;;;5017479;28;19965;-80
2022/10/17 04:04:05;;;;;;;;;;;21.70;99.90;;;;;;5017205;28;19961;-80
2022/10/17 04:06:32;;;;;;;;;;;21.70;99.90;;;;;;5029567;22;20416;-75
2022/10/17 04:08:59;;;;;;;;;;;21.70;99.90;;;;;;5035142;28;20020;-75
2022/10/17 04:11:27;;;;;;;;;;;21.70;99.90;;;;;;5037878;28;19925;-74
2022/10/17 04:13:55;;;;;;;;;;;21.70;99.90;;;;;;5036849;28;20377;-77
2022/10/17 04:16:21;;;;;;;;;;;21.70;99.90;;;;;;5035535;28;19991;-77
2022/10/17 04:18:52;;;;;;;;;;;21.70;99.90;;;;;;5035167;28;19991;-76
2022/10/17 04:21:18;;;;;;;;;;;21.70;99.90;;;;;;5035201;28;20343;-76
2022/10/17 04:23:45;;;;;;;;;;;21.70;99.90;;;;;;5034867;28;19925;-76
2022/10/17 04:26:12;;;;;;;;;;;21.70;99.90;;;;;;5034845;28;20020;-76
2022/10/17 04:28:40;;;;;;;;;;;21.70;99.90;;;;;;5035187;28;20015;-76
2022/10/17 04:31:07;;;;;;;;;;;21.70;99.90;;;;;;5034458;28;20020;-77
2022/10/17 04:33:34;;;;;;;;;;;21.70;99.90;;;;;;5035145;28;20343;-81
2022/10/17 04:36:01;;;;;;;;;;;21.70;99.90;;;;;;5035964;28;20292;-81
2022/10/17 04:38:29;;;;;;;;;;;21.70;99.90;;;;;;5036303;28;19925;-82
2022/10/17 04:40:56;;;;;;;;;;;21.70;99.90;;;;;;5036408;28;20020;-82
2022/10/17 04:43:23;;;;;;;;;;;21.70;99.90;;;;;;5036180;28;20020;-84
2022/10/17 04:45:51;;;;;;;;;;;21.70;99.90;;;;;;5036053;28;19972;-83
2022/10/17 04:48:18;;;;;;;;;;;21.60;99.90;;;;;;5035963;28;20342;-83
2022/10/17 04:50:52;;;;;;;;;;;21.70;99.90;;;;;;5036015;28;20343;-76
2022/10/17 04:53:19;;;;;;;;;;;21.70;99.90;;;;;;5036551;28;19983;-82
2022/10/17 04:55:46;;;;;;;;;;;21.60;99.90;;;;;;5037844;28;20007;-83
2022/10/17 04:58:12;;;;;;;;;;;21.60;99.90;;;;;;5037331;28;19971;-84
2022/10/17 05:00:39;;;;;;;;;;;21.60;99.90;;;;;;5037768;28;20017;-83
2022/10/17 05:03:07;;;;;;;;;;;21.60;99.90;;;;;;5037640;28;20012;-81
2022/10/17 05:05:36;;;;;;;;;;;21.60;99.90;;;;;;5037268;28;19925;-82
2022/10/17 05:08:03;;;;;;;;;;;21.60;99.90;;;;;;5037174;28;19961;-81
2022/10/17 05:10:30;;;;;;;;;;;21.60;99.90;;;;;;5036593;28;20007;-83
2022/10/17 05:12:56;;;;;;;;;;;21.50;99.90;;;;;;5037465;28;20004;-82
2022/10/17 05:15:23;;;;;;;;;;;21.50;99.90;;;;;;5037330;28;19980;-82
2022/10/17 05:17:53;;;;;;;;;;;21.50;99.90;;;;;;5037270;28;19976;-82
2022/10/17 05:20:22;;;;;;;;;;;21.50;99.90;;;;;;5037482;28;20019;-82
2022/10/17 05:22:48;;;;;;;;;;;21.50;99.90;;;;;;5037444;28;20012;-82
2022/10/17 05:25:15;;;;;;;;;;;21.50;99.90;;;;;;5036398;28;20400;-81
2022/10/17 05:27:42;;;;;;;;;;;21.50;99.90;;;;;;5037080;28;20008;-82
2022/10/17 05:30:09;;;;;;;;;;;21.50;99.90;;;;;;5037002;28;19995;-81
2022/10/17 10:11:19;;;;;;;;;;;21.50;99.90;;;;;;5589172;22;19971;-82
2022/10/17 10:13:47;;;;;;;;;;;21.50;99.90;;;;;;5042940;28;20399;-82
2022/10/17 10:16:23;;;;;;;;;;;21.50;99.90;;;;;;5045025;28;19925;-82
2022/10/17 10:18:50;;;;;;;;;;;21.50;99.90;;;;;;5044299;28;19929;-81
2022/10/17 10:21:19;;;;;;;;;;;21.50;99.90;;;;;;5044302;28;19932;-83
2022/10/17 10:24:01;;;;;;;;;;;21.50;99.90;;;;;;5044918;28;19929;-83
2022/10/17 10:26:32;;;;;;;;;;;21.50;99.90;;;;;;5043670;28;19971;-83
2022/10/17 10:29:00;;;;;;;;;;;21.50;99.90;;;;;;5044079;28;19925;-84
2022/10/17 10:31:32;;;;;;;;;;;21.50;99.90;;;;;;5044581;28;19925;-81
2022/10/17 10:34:00;;;;;;;;;;;21.50;99.90;;;;;;5044866;28;19957;-80
2022/10/17 10:36:42;;;;;;;;;;;21.50;99.90;;;;;;5044053;28;19932;-81
2022/10/17 10:39:16;;;;;;;;;;;21.50;99.90;;;;;;5045950;28;19956;-81
2022/10/17 10:41:51;;;;;;;;;;;21.50;99.90;;;;;;5043306;28;19925;-81
2022/10/17 10:44:21;;;;;;;;;;;21.50;99.90;;;;;;5043793;28;19925;-81
2022/10/17 10:46:48;;;;;;;;;;;21.60;99.90;;;;;;5044806;28;20372;-82
2022/10/17 10:49:29;;;;;;;;;;;21.60;99.90;;;;;;5044253;28;19925;-81
2022/10/17 10:51:58;;;;;;;;;;;21.60;99.90;;;;;;5042938;28;19925;-80
2022/10/17 10:54:28;;;;;;;;;;;21.60;99.90;;;;;;5048828;28;19952;-79
2022/10/17 10:56:59;;;;;;;;;;;21.60;99.90;;;;;;5048440;28;19929;-79
2022/10/17 10:59:30;;;;;;;;;;;21.60;99.90;;;;;;5046936;28;20447;-79
2022/10/17 11:02:01;;;;;;;;;;;21.60;99.90;;;;;;5045711;28;20415;-79
2022/10/17 11:04:30;;;;;;;;;;;21.60;99.90;;;;;;5045723;28;19925;-79
2022/10/17 11:07:01;;;;;;;;;;;21.70;99.90;;;;;;5045753;28;19989;-79
2022/10/17 11:09:34;;;;;;;;;;;21.70;99.90;;;;;;5045295;28;19925;-79
2022/10/17 11:12:05;;;;;;;;;;;21.70;99.90;;;;;;5043407;28;19925;-83
2022/10/17 11:14:36;;;;;;;;;;;21.70;99.90;;;;;;5041628;28;19929;-83
2022/10/17 11:17:05;;;;;;;;;;;21.70;99.90;;;;;;5040226;28;20024;-83
2022/10/17 11:19:35;;;;;;;;;;;21.80;99.90;;;;;;5039526;28;19968;-83
2022/10/17 11:22:05;;;;;;;;;;;21.70;99.90;;;;;;5039604;28;19978;-83
2022/10/17 11:24:35;;;;;;;;;;;21.80;99.90;;;;;;5038672;28;19961;-83
2022/10/17 11:27:05;;;;;;;;;;;21.80;99.90;;;;;;5039179;28;20023;-83
2022/10/17 11:29:32;;;;;;;;;;;21.80;99.90;;;;;;5039510;28;19992;-83
2022/10/17 11:32:01;;;;;;;;;;;21.80;99.90;;;;;;5039613;28;20031;-83
2022/10/17 11:34:31;;;;;;;;;;;21.80;99.90;;;;;;5039407;28;19960;-82
2022/10/17 11:37:02;;;;;;;;;;;21.80;99.90;;;;;;5039335;28;20353;-83
2022/10/17 11:39:30;;;;;;;;;;;21.90;99.90;;;;;;5040415;28;19975;-83
2022/10/17 11:42:00;;;;;;;;;;;21.80;99.90;;;;;;5040639;28;20265;-83
2022/10/17 11:44:30;;;;;;;;;;;21.90;99.90;;;;;;5041374;28;19932;-84
2022/10/17 11:46:58;;;;;;;;;;;21.90;99.90;;;;;;5040687;28;19968;-83
2022/10/17 11:49:27;;;;;;;;;;;21.90;99.90;;;;;;5039877;28;19960;-83
2022/10/17 11:52:00;;;;;;;;;;;21.90;99.90;;;;;;5039959;28;19972;-82
2022/10/17 11:54:31;;;;;;;;;;;21.90;99.90;;;;;;5040190;28;19960;-82
2022/10/17 11:57:02;;;;;;;;;;;21.90;99.90;;;;;;5041660;28;19974;-80
2022/10/17 11:59:52;;;;;;;;;;;21.90;99.90;;;;;;5041114;28;19956;-83
2022/10/17 12:02:23;;;;;;;;;;;21.90;99.90;;;;;;5041155;28;19983;-81
2022/10/17 12:04:54;;;;;;;;;;;21.90;99.90;;;;;;5041064;28;19925;-81
2022/10/17 12:07:25;;;;;;;;;;;21.90;99.90;;;;;;5042542;28;19926;-82
2022/10/17 12:09:55;;;;;;;;;;;21.90;99.90;;;;;;5041886;28;20427;-82
2022/10/17 12:12:25;;;;;;;;;;;21.90;99.90;;;;;;5040886;28;19957;-82
2022/10/17 12:14:54;;;;;;;;;;;21.90;99.90;;;;;;5040595;28;20391;-82
2022/10/17 12:17:23;;;;;;;;;;;21.90;99.90;;;;;;5040738;28;20360;-84
2022/10/17 12:19:50;;;;;;;;;;;21.90;99.90;;;;;;5040297;28;19932;-81
2022/10/17 12:22:24;;;;;;;;;;;21.90;99.90;;;;;;5039600;28;19964;-81
2022/10/17 12:24:58;;;;;;;;;;;21.90;99.90;;;;;;5038598;28;19925;-81
2022/10/17 12:27:46;;;;;;;;;;;21.90;99.90;;;;;;5038504;28;19980;-81
2022/10/17 12:30:19;;;;;;;;;;;22.00;99.90;;;;;;5039301;28;19929;-82
2022/10/17 12:32:56;;;;;;;;;;;21.90;99.90;;;;;;5038516;28;19969;-81
2022/10/17 12:35:24;;;;;;;;;;;22.00;99.90;;;;;;5037427;28;20471;-82
2022/10/17 12:38:11;;;;;;;;;;;21.90;99.90;;;;;;5037625;28;19972;-80
2022/10/17 12:40:49;;;;;;;;;;;22.00;99.90;;;;;;5032676;28;19937;-81
2022/10/17 12:43:36;;;;;;;;;;;22.00;99.90;;;;;;5037056;28;19926;-81
2022/10/17 12:46:05;;;;;;;;;;;22.00;99.90;;;;;;5037053;28;19972;-81
2022/10/17 12:48:49;;;;;;;;;;;22.10;99.90;;;;;;5037155;28;19976;-81
2022/10/17 12:51:17;;;;;;;;;;;22.10;99.90;;;;;;5037019;28;19925;-81
2022/10/17 12:53:49;;;;;;;;;;;22.10;99.90;;;;;;5037171;28;20020;-81
2022/10/17 12:56:16;;;;;;;;;;;22.10;99.90;;;;;;5036686;28;19960;-80
2022/10/17 12:58:44;;;;;;;;;;;22.10;99.90;;;;;;5037112;28;19968;-83
2022/10/17 13:01:16;;;;;;;;;;;22.10;99.90;;;;;;5036243;28;20454;-84
2022/10/17 13:03:44;;;;;;;;;;;22.10;99.90;;;;;;5035983;28;20412;-83
2022/10/17 13:06:15;;;;;;;;;;;22.10;99.90;;;;;;5035789;28;19925;-85
2022/10/17 13:08:44;;;;;;;;;;;22.10;99.90;;;;;;5035712;28;19932;-85
2022/10/17 13:11:12;;;;;;;;;;;22.20;99.90;;;;;;5036036;28;19925;-83
2022/10/17 13:13:42;;;;;;;;;;;22.20;99.90;;;;;;5036569;28;19925;-83
2022/10/17 13:16:09;;;;;;;;;;;22.20;99.90;;;;;;5037179;28;19975;-83
2022/10/17 13:18:37;;;;;;;;;;;22.20;99.90;;;;;;5037474;28;19925;-84
2022/10/17 13:21:05;;;;;;;;;;;22.20;99.90;;;;;;5036536;28;20443;-82
2022/10/17 13:23:33;;;;;;;;;;;22.20;99.90;;;;;;5037191;28;19925;-82
2022/10/17 13:26:07;;;;;;;;;;;22.20;99.90;;;;;;5037679;28;20343;-84
2022/10/17 13:28:34;;;;;;;;;;;22.20;99.90;;;;;;5037557;28;20308;-84
2022/10/17 13:31:00;;;;;;;;;;;22.20;99.90;;;;;;5037689;28;19999;-83
2022/10/17 13:33:39;;;;;;;;;;;22.20;99.90;;;;;;5036607;28;20019;-84
2022/10/17 13:36:07;;;;;;;;;;;22.20;99.90;;;;;;5038258;28;19925;-83
2022/10/17 13:38:35;;;;;;;;;;;22.20;99.90;;;;;;5037186;28;19929;-83
2022/10/17 13:41:03;;;;;;;;;;;22.20;99.90;;;;;;5037476;28;19929;-79
2022/10/17 13:43:31;;;;;;;;;;;22.20;99.90;;;;;;5038700;28;20351;-79
2022/10/17 13:46:02;;;;;;;;;;;22.20;99.90;;;;;;5039035;28;19925;-79
2022/10/17 13:48:31;;;;;;;;;;;22.20;99.90;;;;;;5042001;28;19925;-79
2022/10/17 13:51:00;;;;;;;;;;;22.20;99.90;;;;;;5040573;28;19968;-80
2022/10/17 13:53:30;;;;;;;;;;;22.20;99.90;;;;;;5040217;28;20365;-81
2022/10/17 13:55:58;;;;;;;;;;;22.20;99.90;;;;;;5040146;28;19952;-81
2022/10/17 13:58:26;;;;;;;;;;;22.30;99.90;;;;;;5040165;28;19925;-81
2022/10/17 14:00:53;;;;;;;;;;;22.20;99.90;;;;;;5039766;28;20395;-81
2022/10/17 14:03:20;;;;;;;;;;;22.20;99.90;;;;;;5039859;28;19947;-81
2022/10/17 14:06:17;;;;;;;;;;;22.20;99.90;;;;;;5039804;28;19925;-79
2022/10/17 14:08:51;;;;;;;;;;;22.20;99.90;;;;;;4978715;28;19980;-79
2022/10/17 14:11:24;;;;;;;;;;;22.30;99.90;;;;;;5027318;28;19960;-80
2022/10/17 14:13:52;;;;;;;;;;;22.20;99.90;;;;;;5039514;28;20265;-79
2022/10/17 14:16:19;;;;;;;;;;;22.20;99.90;;;;;;5039733;28;20341;-80
2022/10/17 14:18:48;;;;;;;;;;;22.20;99.90;;;;;;5039400;28;20023;-79
2022/10/17 14:21:19;;;;;;;;;;;22.20;99.90;;;;;;5039265;28;20002;-77
2022/10/17 14:23:45;;;;;;;;;;;22.20;99.90;;;;;;5037697;28;19933;-77
2022/10/17 14:26:15;;;;;;;;;;;22.20;99.90;;;;;;5037037;28;20419;-78
2022/10/17 14:28:42;;;;;;;;;;;22.20;99.90;;;;;;5037267;28;20012;-78
2022/10/17 14:31:18;;;;;;;;;;;22.20;99.90;;;;;;5037740;28;20011;-78
2022/10/17 14:33:45;;;;;;;;;;;22.20;99.90;;;;;;5037290;28;19929;-78
2022/10/17 14:36:12;;;;;;;;;;;22.20;99.90;;;;;;5036941;28;20472;-78
2022/10/17 14:38:44;;;;;;;;;;;22.20;99.90;;;;;;5037444;28;19971;-78
2022/10/17 14:41:15;;;;;;;;;;;22.20;99.90;;;;;;5036807;28;19968;-78
2022/10/17 14:43:41;;;;;;;;;;;22.20;99.90;;;;;;5037195;28;20356;-78
2022/10/17 14:46:13;;;;;;;;;;;22.10;99.90;;;;;;5037047;28;20015;-78
2022/10/17 14:48:41;;;;;;;;;;;22.10;99.90;;;;;;5036963;28;19929;-78
2022/10/17 14:51:09;;;;;;;;;;;22.10;99.90;;;;;;5036484;28;20020;-78
2022/10/17 14:53:36;;;;;;;;;;;22.10;99.90;;;;;;5036812;28;20015;-77
2022/10/17 14:56:04;;;;;;;;;;;22.10;99.90;;;;;;5037031;28;19936;-78
2022/10/17 14:58:33;;;;;;;;;;;22.10;99.90;;;;;;5036021;28;19937;-78
2022/10/17 15:01:01;;;;;;;;;;;22.10;99.90;;;;;;5036320;28;20484;-78
2022/10/17 15:03:28;;;;;;;;;;;22.10;99.90;;;;;;5036382;28;19975;-78
2022/10/17 15:05:55;;;;;;;;;;;22.10;99.90;;;;;;5036585;28;19968;-77
2022/10/17 15:08:23;;;;;;;;;;;22.10;99.90;;;;;;5036327;28;19975;-77
2022/10/17 15:10:50;;;;;;;;;;;22.00;99.90;;;;;;5036485;28;20024;-78
2022/10/17 15:13:18;;;;;;;;;;;22.00;99.90;;;;;;5036066;28;19925;-78
2022/10/17 15:15:50;;;;;;;;;;;22.10;99.90;;;;;;5036717;28;20023;-78
2022/10/17 15:18:16;;;;;;;;;;;22.00;99.90;;;;;;5036297;28;20379;-78
2022/10/17 15:20:43;;;;;;;;;;;22.00;99.90;;;;;;5036473;28;19972;-78
2022/10/17 15:23:10;;;;;;;;;;;22.00;99.90;;;;;;5036612;28;19973;-80
2022/10/17 15:25:37;;;;;;;;;;;22.00;99.90;;;;;;5037411;28;19979;-79
2022/10/17 15:28:04;;;;;;;;;;;22.00;99.90;;;;;;5036817;28;20020;-79
2022/10/17 15:30:32;;;;;;;;;;;22.00;99.90;;;;;;5037366;28;19926;-79
2022/10/17 15:33:00;;;;;;;;;;;22.00;99.90;;;;;;5039226;28;19997;-83
2022/10/17 15:35:28;;;;;;;;;;;22.00;99.90;;;;;;5041686;28;19925;-77
2022/10/17 15:37:55;;;;;;;;;;;22.00;99.90;;;;;;5043488;28;19995;-80
2022/10/17 15:40:23;;;;;;;;;;;22.00;99.90;;;;;;5043039;28;19933;-82
2022/10/17 15:42:51;;;;;;;;;;;21.90;99.90;;;;;;5043835;28;19933;-82
2022/10/17 15:45:20;;;;;;;;;;;21.90;99.90;;;;;;5044340;28;19947;-81
2022/10/17 15:47:50;;;;;;;;;;;22.00;99.90;;;;;;5044010;28;19925;-81
2022/10/17 15:50:18;;;;;;;;;;;22.00;99.90;;;;;;5038459;28;19948;-81
2022/10/17 15:52:45;;;;;;;;;;;22.00;99.90;;;;;;5038213;28;20352;-82
2022/10/17 15:55:13;;;;;;;;;;;22.00;99.90;;;;;;5037694;28;20316;-81
2022/10/17 15:57:41;;;;;;;;;;;22.00;99.90;;;;;;5036322;28;19925;-81
2022/10/17 16:00:14;;;;;;;;;;;22.00;99.90;;;;;;5037051;28;20270;-81
2022/10/17 16:02:41;;;;;;;;;;;22.00;99.90;;;;;;5036344;28;19979;-81
2022/10/17 16:05:10;;;;;;;;;;;22.00;99.90;;;;;;5036962;28;20333;-82
2022/10/17 16:07:38;;;;;;;;;;;22.00;99.90;;;;;;5039614;28;20025;-81
2022/10/17 16:10:05;;;;;;;;;;;22.00;99.90;;;;;;5039708;28;20412;-81
2022/10/17 16:12:36;;;;;;;;;;;22.00;99.90;;;;;;5040731;28;19968;-83
2022/10/17 16:15:03;;;;;;;;;;;22.00;99.90;;;;;;5041226;28;19929;-81
2022/10/17 16:17:30;;;;;;;;;;;22.00;99.90;;;;;;5040264;28;19988;-81
2022/10/17 16:19:57;;;;;;;;;;;22.00;99.90;;;;;;5039440;28;20024;-81
2022/10/17 16:22:26;;;;;;;;;;;22.00;99.90;;;;;;5043174;28;20395;-81
2022/10/17 16:24:57;;;;;;;;;;;22.00;99.90;;;;;;5043638;28;19933;-81
2022/10/17 16:27:25;;;;;;;;;;;22.00;99.90;;;;;;5042394;28;19925;-80
2022/10/17 16:29:52;;;;;;;;;;;22.00;99.90;;;;;;5042257;28;19925;-80
2022/10/17 16:32:19;;;;;;;;;;;22.00;99.90;;;;;;5041603;28;19968;-81
2022/10/17 16:34:46;;;;;;;;;;;22.00;99.90;;;;;;5042419;28;19968;-81
2022/10/17 16:37:13;;;;;;;;;;;22.00;99.90;;;;;;5042255;28;19963;-81
2022/10/17 16:39:40;;;;;;;;;;;22.00;99.90;;;;;;5042222;28;19925;-81
2022/10/17 16:42:09;;;;;;;;;;;22.00;99.90;;;;;;5043550;28;19925;-80
2022/10/17 16:44:36;;;;;;;;;;;22.00;99.90;;;;;;5042570;28;19929;-80
2022/10/17 16:47:02;;;;;;;;;;;22.00;99.90;;;;;;5042852;28;19929;-81
2022/10/17 16:49:29;;;;;;;;;;;22.00;99.90;;;;;;5040223;28;19925;-80
2022/10/17 16:51:56;;;;;;;;;;;22.00;99.90;;;;;;5040357;28;19972;-80
2022/10/17 16:54:22;;;;;;;;;;;22.00;99.90;;;;;;5040017;28;20274;-80
2022/10/17 16:56:49;;;;;;;;;;;22.00;99.90;;;;;;5040328;28;19968;-80
2022/10/17 16:59:17;;;;;;;;;;;22.00;99.90;;;;;;5039796;28;20019;-81
2022/10/17 17:01:44;;;;;;;;;;;22.00;99.90;;;;;;5039786;28;19925;-80
2022/10/17 17:04:11;;;;;;;;;;;22.00;99.90;;;;;;5039586;28;19968;-79
2022/10/17 17:06:37;;;;;;;;;;;22.00;99.90;;;;;;5039554;28;20438;-80
2022/10/17 17:09:04;;;;;;;;;;;22.00;99.90;;;;;;5039722;28;19952;-81
2022/10/17 17:11:31;;;;;;;;;;;22.00;99.90;;;;;;5038990;28;19925;-81
2022/10/17 17:14:00;;;;;;;;;;;22.00;99.90;;;;;;5040014;28;19932;-81
2022/10/17 17:16:29;;;;;;;;;;;22.00;99.90;;;;;;5040028;28;19975;-82
2022/10/17 17:18:57;;;;;;;;;;;22.00;99.90;;;;;;5039123;28;19936;-82
2022/10/17 17:21:23;;;;;;;;;;;22.00;99.90;;;;;;5038225;28;20027;-81
2022/10/17 17:23:50;;;;;;;;;;;22.00;99.90;;;;;;5039275;28;19972;-81
2022/10/17 17:26:18;;;;;;;;;;;22.00;99.90;;;;;;5039080;28;20015;-81
2022/10/17 17:28:45;;;;;;;;;;;22.10;99.90;;;;;;5039062;28;19972;-82
2022/10/17 17:31:13;;;;;;;;;;;22.10;99.90;;;;;;5040142;28;19960;-82
2022/10/17 17:33:44;;;;;;;;;;;22.00;99.90;;;;;;5038803;28;21522;-78
2022/10/17 17:36:13;;;;;;;;;;;22.00;99.90;;;;;;5038064;28;20008;-77
2022/10/17 17:38:41;;;;;;;;;;;22.00;99.90;;;;;;5039023;28;19925;-77
2022/10/17 17:41:11;;;;;;;;;;;22.00;99.90;;;;;;5038975;28;20296;-78
2022/10/17 17:43:38;;;;;;;;;;;22.10;99.90;;;;;;5038962;28;19932;-77
2022/10/17 17:46:06;;;;;;;;;;;22.10;99.90;;;;;;5039891;28;19960;-78
2022/10/17 17:48:36;;;;;;;;;;;22.00;99.90;;;;;;5037439;28;19925;-77
2022/10/17 17:51:05;;;;;;;;;;;22.10;99.90;;;;;;5040054;28;20389;-82
2022/10/17 17:53:32;;;;;;;;;;;22.00;99.90;;;;;;5040724;28;19989;-80
2022/10/17 17:56:02;;;;;;;;;;;22.00;99.90;;;;;;5037887;28;20365;-81
2022/10/17 17:58:29;;;;;;;;;;;22.00;99.90;;;;;;5038616;28;19929;-82
2022/10/17 18:00:56;;;;;;;;;;;22.00;99.90;;;;;;5039746;28;19969;-82
2022/10/17 18:03:22;;;;;;;;;;;22.00;99.90;;;;;;5039911;28;19961;-82
2022/10/17 18:05:49;;;;;;;;;;;22.00;99.90;;;;;;5039420;28;20424;-81
2022/10/17 18:08:17;;;;;;;;;;;22.10;99.90;;;;;;5040046;28;19967;-80
2022/10/17 18:10:46;;;;;;;;;;;22.10;99.90;;;;;;5040028;28;19960;-80
2022/10/17 18:13:13;;;;;;;;;;;22.00;99.90;;;;;;5039659;28;19960;-80
2022/10/17 18:15:40;;;;;;;;;;;22.00;99.90;;;;;;5039214;28;19964;-81
2022/10/17 18:18:07;;;;;;;;;;;22.00;99.90;;;;;;5039612;28;19929;-80
2022/10/17 18:20:34;;;;;;;;;;;22.00;99.90;;;;;;5039906;28;19980;-80
2022/10/17 18:23:01;;;;;;;;;;;21.90;99.90;;;;;;5046060;28;19952;-81
2022/10/17 18:25:29;;;;;;;;;;;21.80;99.90;;;;;;5045857;28;19925;-83
2022/10/17 18:27:56;;;;;;;;;;;21.80;99.90;;;;;;5044177;28;19932;-82
2022/10/17 18:30:23;;;;;;;;;;;21.70;99.90;;;;;;5041406;28;19972;-81
2022/10/17 18:32:49;;;;;;;;;;;21.70;99.90;;;;;;5040321;28;20404;-82
2022/10/17 18:35:16;;;;;;;;;;;21.70;99.90;;;;;;5043612;28;19925;-81
2022/10/17 18:37:43;;;;;;;;;;;21.60;99.90;;;;;;5043578;28;20373;-81
2022/10/17 18:40:10;;;;;;;;;;;21.60;99.90;;;;;;5044229;28;19988;-81
2022/10/17 18:42:38;;;;;;;;;;;21.60;99.90;;;;;;5044554;28;19980;-81
2022/10/17 18:45:05;;;;;;;;;;;21.60;99.90;;;;;;5042680;28;19988;-82
2022/10/17 18:47:32;;;;;;;;;;;21.60;99.90;;;;;;5043420;28;19925;-83
2022/10/17 18:49:58;;;;;;;;;;;21.50;99.90;;;;;;5043579;28;19980;-82
2022/10/17 18:52:25;;;;;;;;;;;21.50;99.90;;;;;;5044147;28;20016;-82
2022/10/17 18:54:52;;;;;;;;;;;21.50;99.90;;;;;;5043212;28;19969;-82
2022/10/17 18:57:18;;;;;;;;;;;21.50;99.90;;;;;;5043515;28;19999;-81
2022/10/17 18:59:46;;;;;;;;;;;21.50;99.90;;;;;;5042888;28;19964;-81
2022/10/17 19:02:13;;;;;;;;;;;21.60;99.90;;;;;;5042524;28;19964;-82
2022/10/17 19:04:40;;;;;;;;;;;21.60;99.90;;;;;;5042689;28;19975;-80
2022/10/17 19:07:06;;;;;;;;;;;21.60;99.90;;;;;;5042442;28;19932;-80
2022/10/17 19:09:33;;;;;;;;;;;21.60;99.90;;;;;;5042441;28;20011;-80
2022/10/17 19:12:00;;;;;;;;;;;21.60;99.90;;;;;;5042387;28;19925;-80
2022/10/17 19:14:27;;;;;;;;;;;21.60;99.90;;;;;;5042391;28;19994;-80
2022/10/17 19:16:56;;;;;;;;;;;21.60;99.90;;;;;;5042593;28;19931;-81
2022/10/17 19:19:24;;;;;;;;;;;21.60;99.90;;;;;;5042344;28;19932;-79
2022/10/17 19:21:51;;;;;;;;;;;21.60;99.90;;;;;;5043051;28;19964;-81
2022/10/17 19:24:18;;;;;;;;;;;21.60;99.90;;;;;;5041699;28;19988;-80
2022/10/17 19:26:45;;;;;;;;;;;21.60;99.90;;;;;;5042125;28;20024;-80
2022/10/17 19:29:13;;;;;;;;;;;21.60;99.90;;;;;;5043704;28;19992;-81
2022/10/17 19:31:39;;;;;;;;;;;21.60;99.90;;;;;;5042931;28;19969;-82
2022/10/17 19:34:07;;;;;;;;;;;21.60;99.90;;;;;;5043078;28;19975;-81
2022/10/17 19:36:35;;;;;;;;;;;21.60;99.90;;;;;;5043424;28;19964;-81
2022/10/17 19:39:02;;;;;;;;;;;21.60;99.90;;;;;;5043647;28;19960;-81
2022/10/17 19:41:28;;;;;;;;;;;21.60;99.90;;;;;;5042659;28;20406;-80
2022/10/17 19:43:55;;;;;;;;;;;21.60;99.90;;;;;;5042906;28;19925;-81
2022/10/17 19:46:25;;;;;;;;;;;21.60;99.90;;;;;;5044779;28;19975;-80
2022/10/17 19:48:51;;;;;;;;;;;21.60;99.90;;;;;;5041989;28;20025;-80
2022/10/17 19:51:20;;;;;;;;;;;21.60;99.90;;;;;;5041378;28;19968;-80
2022/10/17 19:53:48;;;;;;;;;;;21.60;99.90;;;;;;5041011;28;19929;-80
2022/10/17 19:56:17;;;;;;;;;;;21.60;99.90;;;;;;5041076;28;19972;-80
2022/10/17 19:58:45;;;;;;;;;;;21.60;99.90;;;;;;5040686;28;19925;-80
2022/10/17 20:01:13;;;;;;;;;;;21.60;99.90;;;;;;5040773;28;19929;-80
2022/10/17 20:03:39;;;;;;;;;;;21.60;99.90;;;;;;5040359;28;20368;-80
2022/10/17 20:06:06;;;;;;;;;;;21.60;99.90;;;;;;5040673;28;19979;-80
2022/10/17 20:08:34;;;;;;;;;;;21.60;99.90;;;;;;5041317;28;19960;-80
2022/10/17 20:11:04;;;;;;;;;;;21.70;99.90;;;;;;5040560;28;19964;-80
2022/10/17 20:13:31;;;;;;;;;;;21.60;99.90;;;;;;5041380;28;20015;-80
2022/10/17 20:15:58;;;;;;;;;;;21.70;99.90;;;;;;5040295;28;19929;-80
2022/10/17 20:18:25;;;;;;;;;;;21.60;99.90;;;;;;5040300;28;20011;-80
2022/10/17 20:20:52;;;;;;;;;;;21.60;99.90;;;;;;5040232;28;19967;-80
2022/10/17 20:23:19;;;;;;;;;;;21.60;99.90;;;;;;5039909;28;19965;-80
2022/10/17 20:25:47;;;;;;;;;;;21.60;99.90;;;;;;5039952;28;19959;-80
2022/10/17 20:28:14;;;;;;;;;;;21.60;99.90;;;;;;5040523;28;19960;-80
2022/10/17 20:30:43;;;;;;;;;;;21.70;99.90;;;;;;5040191;28;20008;-80
2022/10/17 20:33:10;;;;;;;;;;;21.60;99.90;;;;;;5040454;28;19972;-80
2022/10/17 20:35:40;;;;;;;;;;;21.60;99.90;;;;;;5039926;28;20024;-80
2022/10/17 20:38:07;;;;;;;;;;;21.70;99.90;;;;;;5040198;28;20441;-80
2022/10/17 20:40:33;;;;;;;;;;;21.70;99.90;;;;;;5040055;28;19932;-80
2022/10/17 20:43:02;;;;;;;;;;;21.70;99.90;;;;;;5039967;28;20012;-80
2022/10/17 20:45:28;;;;;;;;;;;21.70;99.90;;;;;;5039704;28;19929;-80
2022/10/17 20:47:55;;;;;;;;;;;21.70;99.90;;;;;;5039030;28;19964;-80
2022/10/17 20:50:22;;;;;;;;;;;21.70;99.90;;;;;;5038958;28;19975;-80
2022/10/17 20:52:48;;;;;;;;;;;21.70;99.90;;;;;;5037171;28;19972;-78
2022/10/17 20:55:15;;;;;;;;;;;21.70;99.90;;;;;;5034130;28;20371;-77
2022/10/17 20:57:42;;;;;;;;;;;21.70;99.90;;;;;;5033913;28;20339;-77
2022/10/17 21:00:11;;;;;;;;;;;21.70;99.90;;;;;;5034540;28;20023;-77
2022/10/17 21:02:37;;;;;;;;;;;21.70;99.90;;;;;;5034500;28;19925;-77
2022/10/17 21:05:05;;;;;;;;;;;21.70;99.90;;;;;;5034392;28;20028;-78
2022/10/17 21:07:31;;;;;;;;;;;21.70;99.90;;;;;;5034387;28;19961;-77
2022/10/17 21:09:58;;;;;;;;;;;21.70;99.90;;;;;;5034058;28;20016;-77
2022/10/17 21:12:25;;;;;;;;;;;21.70;99.90;;;;;;5034005;28;20404;-77
2022/10/17 21:14:51;;;;;;;;;;;21.70;99.90;;;;;;5034226;28;20023;-77
2022/10/17 21:17:19;;;;;;;;;;;21.70;99.90;;;;;;5033977;28;20011;-77
2022/10/17 21:19:47;;;;;;;;;;;21.70;99.90;;;;;;5034233;28;20023;-77
2022/10/17 21:22:13;;;;;;;;;;;21.70;99.90;;;;;;5034191;28;20028;-77
2022/10/17 21:24:40;;;;;;;;;;;21.70;99.90;;;;;;5034207;28;20019;-76
2022/10/17 21:27:10;;;;;;;;;;;21.70;99.90;;;;;;5034267;28;20008;-77
2022/10/17 21:29:37;;;;;;;;;;;21.70;99.90;;;;;;5033804;28;20008;-77
2022/10/17 21:32:03;;;;;;;;;;;21.70;99.90;;;;;;5034059;28;19933;-76
2022/10/17 21:34:31;;;;;;;;;;;21.70;99.90;;;;;;5033980;28;20032;-77
2022/10/17 21:36:58;;;;;;;;;;;21.70;99.90;;;;;;5033741;28;20012;-76
2022/10/17 21:39:25;;;;;;;;;;;21.70;99.90;;;;;;5033767;28;20008;-76
2022/10/17 21:41:52;;;;;;;;;;;21.70;99.90;;;;;;5033917;28;19932;-77
2022/10/17 21:44:19;;;;;;;;;;;21.60;99.90;;;;;;5033986;28;20012;-76
2022/10/17 21:46:46;;;;;;;;;;;21.70;99.90;;;;;;5033981;28;20015;-76
2022/10/17 21:49:14;;;;;;;;;;;21.70;99.90;;;;;;5033612;28;20509;-76
2022/10/17 21:51:43;;;;;;;;;;;21.70;99.90;;;;;;5033809;28;20011;-77
2022/10/17 21:54:10;;;;;;;;;;;21.70;99.90;;;;;;5033892;28;19979;-76
2022/10/17 21:56:37;;;;;;;;;;;21.70;99.90;;;;;;5033421;28;20370;-77
2022/10/17 21:59:04;;;;;;;;;;;21.70;99.90;;;;;;5033866;28;19951;-77
2022/10/17 22:01:31;;;;;;;;;;;21.70;99.90;;;;;;5033479;28;19925;-77
2022/10/17 22:03:58;;;;;;;;;;;21.70;99.90;;;;;;5033526;28;20335;-77
2022/10/17 22:06:26;;;;;;;;;;;21.70;99.90;;;;;;5033763;28;20007;-77
2022/10/17 22:08:54;;;;;;;;;;;21.60;99.90;;;;;;5037279;28;20344;-77
2022/10/17 22:11:22;;;;;;;;;;;21.70;99.90;;;;;;5037511;28;20399;-77
2022/10/17 22:13:53;;;;;;;;;;;21.70;99.90;;;;;;5037748;28;20000;-77
2022/10/17 22:16:19;;;;;;;;;;;21.70;99.90;;;;;;5038038;28;20020;-77
2022/10/17 22:18:46;;;;;;;;;;;21.70;99.90;;;;;;5037192;28;19928;-77
2022/10/17 22:21:14;;;;;;;;;;;21.70;99.90;;;;;;5037467;28;20387;-77
2022/10/17 22:23:41;;;;;;;;;;;21.70;99.90;;;;;;5037157;28;20012;-77
2022/10/17 22:26:09;;;;;;;;;;;21.70;99.90;;;;;;5037091;28;20363;-77
2022/10/17 22:28:36;;;;;;;;;;;21.70;99.90;;;;;;5037088;28;19979;-77
2022/10/17 22:31:03;;;;;;;;;;;21.70;99.90;;;;;;5036988;28;20015;-78
2022/10/17 22:33:31;;;;;;;;;;;21.70;99.90;;;;;;5037284;28;20008;-77
2022/10/17 22:35:58;;;;;;;;;;;21.70;99.90;;;;;;5037195;28;20359;-77
2022/10/17 22:38:25;;;;;;;;;;;21.70;99.90;;;;;;5036875;28;19983;-77
2022/10/17 22:40:51;;;;;;;;;;;21.70;99.90;;;;;;5036755;28;20392;-78
2022/10/17 22:43:19;;;;;;;;;;;21.70;99.90;;;;;;5037105;28;20015;-78
2022/10/17 22:45:51;;;;;;;;;;;21.70;99.90;;;;;;5037061;28;20003;-77
2022/10/17 22:48:17;;;;;;;;;;;21.70;99.90;;;;;;5037119;28;19964;-77
2022/10/17 22:50:45;;;;;;;;;;;21.70;99.90;;;;;;5036891;28;20023;-78
2022/10/17 22:53:12;;;;;;;;;;;21.70;99.90;;;;;;5037147;28;19947;-77
2022/10/17 22:55:38;;;;;;;;;;;21.70;99.90;;;;;;5036758;28;19983;-77